Time;durP1;ratioP1;P1;durP2;ratioP2;P2;SDS_P1;SDS_P2;PMS_P1;PMS_P2;Temp;Humidity;BMP_temperature;BMP_pressure;BME280_temperature;BME280_humidity;BME280_pressure;Samples;Min_cycle;Max_cycle;Signal;HPM_P1;HPM_P2
2024/01/18 00:00:59;;;;;;;14.20;13.80;;;8.60;61.50;;;;;;5051307;28;20455;-78
2024/01/18 00:03:27;;;;;;;13.90;13.50;;;8.50;56.60;;;;;;5043624;28;20453;-77
2024/01/18 00:05:55;;;;;;;13.90;13.50;;;8.50;51.60;;;;;;5042113;28;21208;-80
2024/01/18 00:08:24;;;;;;;13.80;13.40;;;8.50;56.10;;;;;;5046453;28;20460;-81
2024/01/18 00:10:52;;;;;;;14.43;14.03;;;8.50;50.80;;;;;;5042294;28;20469;-81
2024/01/18 00:13:20;;;;;;;14.37;13.90;;;8.50;50.20;;;;;;5042014;28;20452;-81
2024/01/18 00:15:49;;;;;;;14.30;13.90;;;8.50;57.30;;;;;;5041626;28;20555;-80
2024/01/18 00:18:19;;;;;;;14.10;13.70;;;8.50;52.90;;;;;;5043050;28;20597;-80
2024/01/18 00:20:47;;;;;;;14.10;13.70;;;8.50;48.80;;;;;;5041784;28;21565;-81
2024/01/18 00:23:16;;;;;;;14.03;13.70;;;8.50;44.10;;;;;;5051362;28;20447;-77
2024/01/18 00:25:44;;;;;;;13.93;13.63;;;8.50;46.70;;;;;;5044447;28;20605;-78
2024/01/18 00:28:13;;;;;;;14.47;14.07;;;8.50;42.40;;;;;;5041773;28;20448;-78
2024/01/18 00:30:41;;;;;;;14.23;13.83;;;8.50;42.00;;;;;;5032769;28;20795;-77
2024/01/18 00:33:09;;;;;;;13.80;13.50;;;8.50;48.90;;;;;;5051142;28;21050;-78
2024/01/18 00:35:39;;;;;;;14.50;13.90;;;8.50;49.00;;;;;;5050943;28;20563;-78
2024/01/18 00:38:07;;;;;;;14.17;13.87;;;8.50;39.20;;;;;;5049415;28;20460;-77
2024/01/18 00:40:36;;;;;;;14.10;13.60;;;8.50;36.90;;;;;;5051236;28;20549;-78
2024/01/18 00:43:05;;;;;;;14.17;13.77;;;8.40;41.90;;;;;;5053581;28;20448;-78
2024/01/18 00:45:33;;;;;;;14.23;13.80;;;8.50;44.30;;;;;;5047323;28;20481;-78
2024/01/18 00:48:02;;;;;;;13.83;13.53;;;8.50;40.60;;;;;;5035827;28;20460;-76
2024/01/18 00:50:30;;;;;;;14.43;14.10;;;8.50;37.10;;;;;;5044333;28;20447;-77
2024/01/18 00:53:00;;;;;;;14.63;13.97;;;8.50;31.90;;;;;;5039316;28;20491;-77
2024/01/18 00:55:28;;;;;;;13.90;13.60;;;8.50;35.30;;;;;;5040835;28;20514;-78
2024/01/18 00:57:56;;;;;;;14.13;13.77;;;8.50;32.50;;;;;;5036987;28;20496;-80
2024/01/18 01:00:25;;;;;;;13.50;13.20;;;8.50;26.30;;;;;;5040221;28;20619;-79
2024/01/18 01:02:53;;;;;;;13.60;13.20;;;8.50;24.50;;;;;;5055216;28;20462;-76
2024/01/18 01:05:21;;;;;;;13.50;13.20;;;8.50;27.00;;;;;;5042111;28;20461;-77
2024/01/18 01:07:49;;;;;;;13.60;13.30;;;8.50;25.40;;;;;;5041422;28;20457;-80
2024/01/18 01:10:19;;;;;;;14.00;13.50;;;8.50;28.80;;;;;;5046237;28;20675;-79
2024/01/18 01:12:48;;;;;;;13.93;13.53;;;8.50;30.10;;;;;;5041673;28;20481;-80
2024/01/18 01:15:16;;;;;;;13.87;13.37;;;8.50;37.10;;;;;;5055121;28;20559;-78
2024/01/18 01:17:45;;;;;;;14.27;13.70;;;8.50;41.90;;;;;;5047926;28;20463;-80
2024/01/18 01:20:14;;;;;;;14.07;13.57;;;8.50;39.80;;;;;;5050421;28;20965;-77
2024/01/18 01:22:42;;;;;;;13.87;13.50;;;8.50;37.80;;;;;;5044378;28;20464;-80
2024/01/18 01:25:10;;;;;;;13.80;13.50;;;8.50;42.10;;;;;;5049147;28;20459;-79
2024/01/18 01:27:40;;;;;;;13.90;13.60;;;8.50;39.80;;;;;;5044571;28;20877;-79
2024/01/18 01:30:10;;;;;;;14.00;13.70;;;8.60;43.20;;;;;;5045585;28;20454;-79
2024/01/18 01:32:38;;;;;;;14.10;13.70;;;8.50;40.40;;;;;;5048024;28;20456;-79
2024/01/18 01:35:07;;;;;;;14.07;13.77;;;8.50;41.20;;;;;;5049661;28;21010;-81
2024/01/18 01:37:35;;;;;;;13.80;13.40;;;8.50;35.70;;;;;;5050063;28;20988;-79
2024/01/18 01:40:05;;;;;;;14.37;13.67;;;8.50;41.30;;;;;;5051614;28;20503;-80
2024/01/18 01:42:33;;;;;;;14.40;14.00;;;8.40;37.30;;;;;;5040650;28;21363;-80
2024/01/18 01:45:04;;;;;;;13.83;13.53;;;8.50;39.00;;;;;;5043981;28;20976;-80
2024/01/18 01:47:32;;;;;;;13.67;13.37;;;8.40;41.00;;;;;;5041193;28;20537;-80
2024/01/18 01:50:01;;;;;;;13.80;13.50;;;8.50;42.20;;;;;;5040761;28;20443;-80
2024/01/18 01:52:32;;;;;;;13.67;13.30;;;8.50;43.80;;;;;;5045552;28;20501;-80
2024/01/18 01:55:01;;;;;;;13.90;13.50;;;8.50;43.20;;;;;;5041513;28;20553;-79
2024/01/18 01:57:30;;;;;;;13.60;13.30;;;8.50;43.50;;;;;;5044311;28;21154;-80
2024/01/18 01:59:59;;;;;;;14.33;13.93;;;8.50;43.60;;;;;;5048689;28;20559;-79
2024/01/18 02:02:29;;;;;;;13.87;13.37;;;8.50;45.10;;;;;;5044307;28;20473;-77
2024/01/18 02:04:58;;;;;;;13.43;13.13;;;8.50;37.10;;;;;;5045553;28;20529;-77
2024/01/18 02:07:28;;;;;;;13.97;13.60;;;8.50;39.10;;;;;;5039461;28;20521;-78
2024/01/18 02:09:57;;;;;;;13.57;13.27;;;8.50;37.50;;;;;;5035735;28;20457;-77
2024/01/18 02:12:25;;;;;;;14.10;13.80;;;8.50;29.30;;;;;;5038288;28;20460;-76
2024/01/18 02:14:55;;;;;;;13.77;13.37;;;8.50;26.40;;;;;;5044934;28;21010;-79
2024/01/18 02:17:23;;;;;;;13.67;13.37;;;8.50;28.20;;;;;;5037604;28;20507;-78
2024/01/18 02:19:53;;;;;;;14.00;13.70;;;8.50;22.30;;;;;;5037598;28;20479;-79
2024/01/18 02:22:25;;;;;;;13.80;13.50;;;8.50;26.30;;;;;;5045738;28;20455;-79
2024/01/18 02:24:59;;;;;;;13.97;13.43;;;8.50;26.30;;;;;;5050621;28;20587;-77
2024/01/18 02:27:29;;;;;;;13.90;13.30;;;8.50;29.60;;;;;;5038910;28;20475;-77
2024/01/18 02:29:57;;;;;;;13.73;13.43;;;8.50;27.80;;;;;;5037613;28;20456;-78
2024/01/18 02:32:25;;;;;;;13.67;13.37;;;8.50;25.70;;;;;;5049096;28;20996;-79
2024/01/18 02:34:53;;;;;;;14.00;13.60;;;8.50;23.10;;;;;;5045191;28;20870;-79
2024/01/18 02:37:22;;;;;;;13.90;13.60;;;8.50;23.70;;;;;;5049909;28;20511;-79
2024/01/18 02:39:52;;;;;;;14.00;13.70;;;8.50;26.20;;;;;;5051197;28;20491;-80
2024/01/18 02:42:20;;;;;;;13.90;13.50;;;8.50;24.20;;;;;;5054105;28;20492;-79
2024/01/18 02:44:50;;;;;;;13.70;13.20;;;8.60;20.00;;;;;;5048564;28;21063;-81
2024/01/18 02:47:19;;;;;;;13.50;13.20;;;8.50;14.50;;;;;;5042276;28;20480;-79
2024/01/18 02:49:47;;;;;;;13.60;13.30;;;8.50;18.20;;;;;;5041127;28;20916;-79
2024/01/18 02:52:15;;;;;;;13.70;13.30;;;8.50;16.40;;;;;;5032212;28;20463;-77
2024/01/18 02:54:44;;;;;;;13.30;13.00;;;8.60;17.20;;;;;;5042983;28;20539;-80
2024/01/18 02:57:12;;;;;;;13.30;13.00;;;8.50;18.10;;;;;;5041018;28;20996;-76
2024/01/18 02:59:41;;;;;;;13.50;13.20;;;8.50;26.30;;;;;;5042852;28;20562;-79
2024/01/18 03:02:10;;;;;;;13.90;13.40;;;8.50;29.60;;;;;;5035666;28;20576;-80
2024/01/18 03:04:39;;;;;;;13.67;13.37;;;8.50;32.00;;;;;;5044532;28;20527;-79
2024/01/18 03:07:07;;;;;;;14.20;13.80;;;8.50;37.10;;;;;;5041057;28;20485;-79
2024/01/18 03:09:35;;;;;;;13.70;13.40;;;8.50;54.60;;;;;;5044060;28;20522;-78
2024/01/18 03:12:05;;;;;;;14.00;13.60;;;8.50;67.20;;;;;;5037805;28;20439;-79
2024/01/18 03:14:33;;;;;;;13.73;13.43;;;8.50;68.00;;;;;;5039091;28;20543;-77
2024/01/18 03:17:05;;;;;;;14.00;13.60;;;8.50;72.70;;;;;;5045132;28;20685;-80
2024/01/18 03:19:34;;;;;;;14.30;13.90;;;8.50;72.70;;;;;;5045662;28;20468;-76
2024/01/18 03:22:03;;;;;;;13.80;13.40;;;8.50;74.70;;;;;;5043430;28;20480;-77
2024/01/18 03:24:31;;;;;;;14.33;13.93;;;8.50;73.80;;;;;;5041906;28;20463;-77
2024/01/18 03:26:59;;;;;;;14.30;13.90;;;8.50;64.60;;;;;;5043683;28;20501;-76
2024/01/18 03:29:27;;;;;;;14.13;13.83;;;8.50;64.90;;;;;;5041739;28;20458;-77
2024/01/18 03:31:55;;;;;;;14.17;13.77;;;8.50;73.60;;;;;;5039227;28;21027;-76
2024/01/18 03:34:24;;;;;;;14.20;13.90;;;8.40;74.80;;;;;;5045525;28;20459;-76
2024/01/18 03:36:53;;;;;;;14.00;13.70;;;8.50;78.80;;;;;;5039825;28;20558;-77
2024/01/18 03:39:21;;;;;;;14.73;14.30;;;8.40;77.80;;;;;;5038592;28;20543;-78
2024/01/18 03:41:50;;;;;;;14.17;13.57;;;8.40;73.00;;;;;;5038780;28;21040;-79
2024/01/18 03:44:19;;;;;;;14.30;13.83;;;8.40;73.00;;;;;;5041851;28;21047;-76
2024/01/18 03:46:47;;;;;;;13.83;13.43;;;8.40;71.60;;;;;;5053121;28;22730;-79
2024/01/18 03:49:15;;;;;;;14.20;13.80;;;8.40;70.20;;;;;;5038039;28;20471;-77
2024/01/18 03:51:44;;;;;;;14.00;13.50;;;8.40;65.10;;;;;;5046092;28;20866;-77
2024/01/18 03:54:13;;;;;;;13.90;13.60;;;8.40;68.30;;;;;;5046613;28;20452;-78
2024/01/18 03:56:42;;;;;;;14.00;13.60;;;8.40;68.60;;;;;;5047226;28;20483;-78
2024/01/18 03:59:10;;;;;;;14.00;13.60;;;8.50;69.60;;;;;;5041490;28;20463;-79
2024/01/18 04:01:39;;;;;;;14.30;13.90;;;8.50;61.20;;;;;;5044924;28;20561;-79
2024/01/18 04:04:08;;;;;;;14.20;13.80;;;8.50;55.20;;;;;;5037786;28;20464;-78
2024/01/18 04:06:36;;;;;;;14.27;13.87;;;8.50;61.00;;;;;;5039850;28;20486;-77
2024/01/18 04:09:06;;;;;;;14.13;13.80;;;8.50;68.50;;;;;;5042291;28;20456;-76
2024/01/18 04:11:36;;;;;;;14.30;13.90;;;8.50;57.10;;;;;;5038930;28;20504;-78
2024/01/18 04:14:04;;;;;;;14.13;13.73;;;8.50;59.60;;;;;;5045391;28;20484;-78
2024/01/18 04:16:33;;;;;;;15.20;14.70;;;8.50;60.00;;;;;;5036702;28;20658;-78
2024/01/18 04:19:01;;;;;;;14.43;14.10;;;8.50;52.90;;;;;;5035902;28;20460;-77
2024/01/18 04:21:31;;;;;;;14.70;14.20;;;8.50;60.00;;;;;;5051093;28;20472;-78
2024/01/18 04:23:59;;;;;;;14.83;14.30;;;8.50;56.50;;;;;;5053139;28;20980;-76
2024/01/18 04:26:31;;;;;;;14.67;14.27;;;8.40;55.00;;;;;;5047123;28;20614;-79
2024/01/18 04:29:01;;;;;;;14.20;13.80;;;8.50;54.20;;;;;;5041567;28;20561;-76
2024/01/18 04:31:29;;;;;;;14.70;14.30;;;8.50;60.00;;;;;;5039881;28;20448;-78
2024/01/18 04:33:57;;;;;;;14.80;14.37;;;8.50;58.70;;;;;;5053908;28;20448;-76
2024/01/18 04:36:26;;;;;;;14.87;14.40;;;8.50;56.60;;;;;;5052195;28;20499;-78
2024/01/18 04:38:54;;;;;;;15.00;14.60;;;8.50;59.50;;;;;;5056136;28;20503;-79
2024/01/18 04:41:22;;;;;;;14.90;14.50;;;8.50;60.00;;;;;;5050371;28;20471;-79
2024/01/18 04:43:51;;;;;;;14.70;14.10;;;8.50;63.30;;;;;;5053476;28;20953;-76
2024/01/18 04:46:22;;;;;;;15.43;14.70;;;8.40;54.00;;;;;;5048869;28;20475;-76
2024/01/18 04:48:51;;;;;;;14.97;14.47;;;8.40;59.60;;;;;;5036319;28;20461;-79
2024/01/18 04:51:21;;;;;;;14.80;14.30;;;8.40;63.80;;;;;;5046218;28;20463;-77
2024/01/18 04:53:49;;;;;;;14.70;14.20;;;8.40;60.80;;;;;;5046964;28;20486;-79
2024/01/18 04:56:18;;;;;;;15.00;14.30;;;8.40;60.00;;;;;;5047705;28;21493;-80
2024/01/18 04:58:46;;;;;;;14.60;14.20;;;8.40;58.30;;;;;;5045329;28;20444;-80
2024/01/18 05:01:14;;;;;;;14.10;13.70;;;8.40;51.30;;;;;;5041443;28;20479;-79
2024/01/18 05:03:45;;;;;;;14.40;13.90;;;8.30;57.30;;;;;;5041311;28;20517;-78
2024/01/18 05:06:13;;;;;;;14.67;14.20;;;8.30;67.40;;;;;;5037293;28;20487;-78
2024/01/18 05:08:42;;;;;;;14.20;13.80;;;8.30;73.90;;;;;;5036864;28;20464;-80
2024/01/18 05:11:10;;;;;;;14.80;14.40;;;8.30;71.50;;;;;;5039878;28;20444;-77
2024/01/18 05:13:38;;;;;;;14.80;14.20;;;8.30;69.30;;;;;;5049373;28;20504;-78
2024/01/18 05:16:07;;;;;;;14.50;14.03;;;8.30;78.10;;;;;;5047959;28;20476;-80
2024/01/18 05:18:35;;;;;;;14.00;13.60;;;8.30;80.80;;;;;;5041005;28;20968;-80
2024/01/18 05:21:05;;;;;;;14.63;14.10;;;8.40;74.60;;;;;;5049883;28;20543;-79
2024/01/18 05:23:33;;;;;;;14.40;14.00;;;8.40;66.20;;;;;;5045986;28;20537;-78
2024/01/18 05:26:01;;;;;;;14.20;13.80;;;8.30;67.20;;;;;;5040994;28;20483;-79
2024/01/18 05:28:30;;;;;;;14.10;13.77;;;8.40;68.10;;;;;;5032151;28;20462;-78
2024/01/18 05:30:58;;;;;;;14.50;14.10;;;8.30;60.10;;;;;;5031545;28;20677;-78
2024/01/18 05:33:27;;;;;;;14.67;13.90;;;8.40;63.50;;;;;;5032897;28;20444;-78
2024/01/18 05:35:55;;;;;;;14.33;14.03;;;8.30;60.00;;;;;;5037204;28;20481;-77
2024/01/18 05:38:25;;;;;;;14.50;14.00;;;8.30;65.90;;;;;;5035670;28;20455;-81
2024/01/18 05:40:53;;;;;;;14.80;14.30;;;8.40;68.50;;;;;;5044780;28;21032;-79
2024/01/18 05:43:21;;;;;;;14.30;13.87;;;8.40;76.10;;;;;;5043646;28;20479;-79
2024/01/18 05:45:49;;;;;;;14.70;14.10;;;8.30;67.40;;;;;;5038189;28;21101;-79
2024/01/18 05:48:18;;;;;;;13.90;13.47;;;8.30;69.80;;;;;;5047068;28;20551;-76
2024/01/18 05:50:46;;;;;;;14.40;14.00;;;8.30;72.50;;;;;;5034188;28;20463;-80
2024/01/18 05:53:16;;;;;;;14.60;14.10;;;8.30;74.00;;;;;;5038019;28;20471;-77
2024/01/18 05:55:45;;;;;;;14.20;13.80;;;8.20;72.20;;;;;;5040278;28;20567;-77
2024/01/18 05:58:14;;;;;;;14.30;13.80;;;8.30;74.70;;;;;;5036352;28;20543;-79
2024/01/18 06:00:42;;;;;;;14.40;14.00;;;8.30;84.80;;;;;;5039507;28;20456;-77
2024/01/18 06:03:10;;;;;;;14.90;14.30;;;8.30;80.40;;;;;;5035679;28;20495;-79
2024/01/18 06:05:39;;;;;;;14.73;14.33;;;8.30;78.00;;;;;;5039711;28;21040;-81
2024/01/18 06:08:07;;;;;;;15.13;14.70;;;8.30;73.80;;;;;;5039110;28;20568;-78
2024/01/18 06:10:35;;;;;;;15.13;14.63;;;8.40;79.40;;;;;;5026955;28;20462;-78
2024/01/18 06:13:05;;;;;;;15.10;14.60;;;8.40;74.30;;;;;;5037840;28;20550;-79
2024/01/18 06:15:33;;;;;;;15.13;14.70;;;8.40;79.20;;;;;;5041353;28;20487;-79
2024/01/18 06:18:03;;;;;;;15.43;14.83;;;8.40;70.00;;;;;;5040691;28;20496;-77
2024/01/18 06:20:32;;;;;;;15.40;14.90;;;8.40;67.50;;;;;;5041487;28;20475;-78
2024/01/18 06:23:01;;;;;;;14.97;14.47;;;8.40;60.10;;;;;;5038883;28;20491;-80
2024/01/18 06:25:30;;;;;;;14.47;14.07;;;8.30;60.10;;;;;;5049325;28;20466;-79
2024/01/18 06:27:58;;;;;;;14.73;14.33;;;8.30;60.70;;;;;;5047340;28;20481;-78
2024/01/18 06:30:27;;;;;;;14.43;14.13;;;8.30;68.00;;;;;;5040472;28;20467;-80
2024/01/18 06:32:55;;;;;;;17.57;16.77;;;8.40;62.60;;;;;;5051855;28;21056;-80
2024/01/18 06:35:24;;;;;;;14.87;14.37;;;8.40;66.80;;;;;;5038723;28;20452;-80
2024/01/18 06:37:52;;;;;;;14.83;14.43;;;8.40;70.60;;;;;;5054286;28;20471;-78
2024/01/18 06:40:21;;;;;;;15.10;14.60;;;8.40;74.10;;;;;;5052888;28;20495;-81
2024/01/18 06:42:50;;;;;;;15.40;14.90;;;8.40;70.60;;;;;;5054692;28;20475;-81
2024/01/18 06:45:18;;;;;;;15.43;14.93;;;8.40;70.50;;;;;;5045594;28;20566;-78
2024/01/18 06:47:47;;;;;;;14.50;14.10;;;8.50;66.70;;;;;;5047475;28;20456;-79
2024/01/18 06:50:16;;;;;;;15.70;15.00;;;8.50;60.80;;;;;;5041327;28;20462;-80
2024/01/18 06:52:44;;;;;;;17.20;16.27;;;8.50;58.30;;;;;;5043221;28;20466;-78
2024/01/18 06:55:12;;;;;;;17.57;16.87;;;8.40;51.40;;;;;;5039771;28;20451;-80
2024/01/18 06:57:41;;;;;;;19.53;18.33;;;8.40;38.80;;;;;;5057887;28;20481;-76
2024/01/18 07:00:10;;;;;;;19.53;18.60;;;8.30;23.90;;;;;;5056721;28;20456;-79
2024/01/18 07:02:38;;;;;;;18.73;17.87;;;8.30;8.20;;;;;;5061738;28;20494;-81
2024/01/18 07:05:08;;;;;;;18.73;17.87;;;8.20;1.00;;;;;;5046007;28;21007;-80
2024/01/18 07:07:37;;;;;;;17.77;17.07;;;8.10;1.00;;;;;;5061009;28;20514;-80
2024/01/18 07:10:06;;;;;;;18.60;17.90;;;8.00;1.00;;;;;;5051362;28;20462;-79
2024/01/18 07:12:34;;;;;;;18.40;17.60;;;7.90;1.00;;;;;;5055752;28;20456;-78
2024/01/18 07:15:04;;;;;;;18.70;17.90;;;7.90;1.00;;;;;;5054854;28;20460;-80
2024/01/18 07:17:32;;;;;;;18.40;17.70;;;7.90;1.00;;;;;;5053662;28;20467;-78
2024/01/18 07:20:00;;;;;;;18.80;18.10;;;7.80;1.00;;;;;;5055670;28;20976;-77
2024/01/18 07:22:30;;;;;;;18.70;17.90;;;7.80;1.00;;;;;;5055504;28;20487;-79
2024/01/18 07:24:58;;;;;;;18.00;17.20;;;7.70;1.00;;;;;;5057580;28;20540;-79
2024/01/18 07:27:26;;;;;;;18.83;18.13;;;7.70;1.00;;;;;;5056861;28;20487;-79
2024/01/18 07:29:55;;;;;;;19.07;18.17;;;7.70;1.00;;;;;;5048403;28;21492;-80
2024/01/18 07:32:23;;;;;;;18.20;17.50;;;7.70;1.00;;;;;;5047920;28;20455;-79
2024/01/18 07:34:51;;;;;;;18.53;17.63;;;7.70;1.00;;;;;;5052885;28;20467;-79
2024/01/18 07:37:20;;;;;;;18.77;17.87;;;7.60;1.00;;;;;;5048214;28;20534;-79
2024/01/18 07:39:50;;;;;;;17.50;16.80;;;7.60;1.00;;;;;;5048602;28;20466;-81
2024/01/18 07:42:18;;;;;;;17.60;16.80;;;7.60;1.00;;;;;;5046292;28;21954;-80
2024/01/18 07:44:47;;;;;;;17.33;16.73;;;7.60;1.00;;;;;;5047890;28;20456;-79
2024/01/18 07:47:16;;;;;;;17.07;16.47;;;7.60;1.00;;;;;;5037279;28;20477;-80
2024/01/18 07:49:46;;;;;;;17.47;16.50;;;7.60;1.00;;;;;;5044214;28;20476;-78
2024/01/18 07:52:18;;;;;;;17.50;16.70;;;7.50;1.00;;;;;;5054691;28;21004;-78
2024/01/18 07:54:49;;;;;;;16.93;16.33;;;7.50;1.00;;;;;;5045675;28;21916;-80
2024/01/18 07:57:19;;;;;;;17.23;16.53;;;7.50;1.00;;;;;;5041532;28;20472;-79
2024/01/18 07:59:47;;;;;;;16.27;15.70;;;7.50;1.00;;;;;;5049879;28;20456;-77
2024/01/18 08:02:16;;;;;;;17.30;16.70;;;7.50;1.00;;;;;;5042362;28;20500;-79
2024/01/18 08:04:44;;;;;;;17.30;16.60;;;7.40;1.00;;;;;;5039355;28;20452;-79
2024/01/18 08:07:12;;;;;;;17.40;16.70;;;7.40;1.00;;;;;;5050963;28;20482;-80
2024/01/18 08:09:40;;;;;;;17.63;16.90;;;7.40;99.90;;;;;;5051921;28;20460;-80
2024/01/18 08:12:09;;;;;;;17.00;16.40;;;7.40;99.90;;;;;;5051518;28;20521;-79
2024/01/18 08:14:42;;;;;;;17.13;16.33;;;7.40;1.00;;;;;;5043871;28;20965;-79
2024/01/18 08:17:11;;;;;;;16.80;16.00;;;7.40;1.00;;;;;;5051780;28;20467;-80
2024/01/18 08:19:40;;;;;;;17.17;16.40;;;7.30;99.90;;;;;;5045691;28;20505;-80
2024/01/18 08:22:11;;;;;;;18.83;17.77;;;7.30;99.90;;;;;;5044647;28;20453;-78
2024/01/18 08:24:41;;;;;;;16.87;16.17;;;7.30;99.90;;;;;;5056432;28;20514;-79
2024/01/18 08:27:11;;;;;;;16.70;16.10;;;7.20;99.90;;;;;;5052509;28;20522;-78
2024/01/18 08:29:40;;;;;;;16.23;15.73;;;7.30;99.90;;;;;;5044980;28;20969;-80
2024/01/18 08:32:09;;;;;;;15.80;15.30;;;7.20;99.90;;;;;;5046107;28;20459;-78
2024/01/18 08:34:37;;;;;;;15.67;15.17;;;7.20;99.90;;;;;;5055535;28;20550;-80
2024/01/18 08:37:08;;;;;;;15.83;15.33;;;7.10;1.00;;;;;;5055958;28;20992;-77
2024/01/18 08:39:36;;;;;;;15.83;15.30;;;7.10;1.00;;;;;;5051507;28;20456;-79
2024/01/18 08:42:05;;;;;;;15.67;15.07;;;7.00;99.90;;;;;;5055884;28;20447;-77
2024/01/18 08:44:33;;;;;;;15.50;14.90;;;7.00;99.90;;;;;;5047575;28;20471;-79
2024/01/18 08:47:01;;;;;;;14.97;14.53;;;6.90;99.90;;;;;;5041321;28;20516;-80
2024/01/18 08:49:31;;;;;;;15.67;15.17;;;6.90;1.00;;;;;;5051827;28;20542;-78
2024/01/18 08:52:00;;;;;;;15.67;15.10;;;6.80;99.90;;;;;;5056456;28;20521;-80
2024/01/18 08:54:28;;;;;;;15.83;15.23;;;6.80;99.90;;;;;;5049416;28;20465;-79
2024/01/18 08:56:56;;;;;;;15.13;14.73;;;6.80;99.90;;;;;;5055785;28;21516;-77
2024/01/18 08:59:24;;;;;;;15.40;14.90;;;6.70;1.00;;;;;;5056418;28;20451;-79
2024/01/18 09:01:53;;;;;;;14.90;14.50;;;6.70;99.90;;;;;;5052128;28;20547;-78
2024/01/18 09:04:21;;;;;;;14.50;14.10;;;6.70;99.90;;;;;;5050459;28;20506;-79
2024/01/18 09:06:51;;;;;;;14.70;14.30;;;6.60;1.00;;;;;;5051383;28;20478;-77
2024/01/18 09:09:19;;;;;;;14.90;14.50;;;6.50;1.00;;;;;;5048122;28;20444;-79
2024/01/18 09:11:48;;;;;;;14.77;14.37;;;6.50;99.90;;;;;;5049739;28;20447;-77
2024/01/18 09:14:16;;;;;;;14.43;14.03;;;6.50;99.90;;;;;;5054266;28;20982;-77
2024/01/18 09:16:44;;;;;;;14.30;13.90;;;6.50;99.90;;;;;;5052220;28;20555;-78
2024/01/18 09:19:12;;;;;;;13.90;13.60;;;6.50;25.10;;;;;;5046382;28;20862;-78
2024/01/18 09:21:43;;;;;;;13.80;13.50;;;6.50;1.00;;;;;;5054873;28;20452;-78
2024/01/18 09:24:14;;;;;;;14.23;13.80;;;6.40;99.90;;;;;;5054691;28;20483;-78
2024/01/18 09:26:42;;;;;;;13.43;13.13;;;6.30;99.90;;;;;;5050534;28;20484;-78
2024/01/18 09:29:10;;;;;;;13.70;13.40;;;6.30;1.00;;;;;;5045985;28;21032;-78
2024/01/18 09:31:39;;;;;;;13.90;13.50;;;6.20;1.00;;;;;;5050967;28;20463;-80
2024/01/18 09:34:10;;;;;;;13.30;13.00;;;6.20;1.00;;;;;;5043201;28;21213;-76
2024/01/18 09:36:39;;;;;;;13.30;12.90;;;6.20;1.00;;;;;;5052624;28;20574;-79
2024/01/18 09:39:09;;;;;;;12.70;12.50;;;6.10;1.00;;;;;;5054757;28;20458;-79
2024/01/18 09:41:39;;;;;;;12.43;12.13;;;6.10;99.90;;;;;;5051212;28;20510;-78
2024/01/18 09:44:13;;;;;;;13.20;12.80;;;6.00;1.00;;;;;;5049867;28;20471;-77
2024/01/18 09:46:43;;;;;;;12.83;12.53;;;5.90;1.00;;;;;;5050929;28;20492;-78
2024/01/18 09:49:11;;;;;;;12.77;12.47;;;5.90;1.00;;;;;;5048272;28;20460;-78
2024/01/18 09:51:39;;;;;;;12.10;11.80;;;5.80;1.00;;;;;;5050952;28;20468;-77
2024/01/18 09:54:08;;;;;;;12.67;12.23;;;5.80;1.00;;;;;;5053769;28;20441;-78
2024/01/18 09:56:43;;;;;;;12.60;12.30;;;5.80;1.00;;;;;;5052772;28;20479;-78
2024/01/18 09:59:15;;;;;;;11.60;11.40;;;5.70;99.90;;;;;;5051441;28;21056;-78
2024/01/18 10:01:43;;;;;;;11.93;11.63;;;5.70;1.00;;;;;;5042051;28;20442;-79
2024/01/18 10:04:13;;;;;;;12.43;12.13;;;5.60;99.90;;;;;;5047656;28;20464;-79
2024/01/18 10:06:42;;;;;;;11.20;11.00;;;5.50;99.90;;;;;;5053806;28;20493;-79
2024/01/18 10:09:14;;;;;;;12.03;11.73;;;5.60;99.90;;;;;;5049037;28;20458;-77
2024/01/18 10:11:46;;;;;;;11.50;11.30;;;5.50;94.20;;;;;;5054919;28;20580;-77
2024/01/18 10:14:14;;;;;;;11.50;11.30;;;5.40;1.00;;;;;;5049027;28;20454;-78
2024/01/18 10:16:43;;;;;;;10.90;10.70;;;5.40;99.90;;;;;;5052720;28;20551;-77
2024/01/18 10:19:14;;;;;;;11.10;10.90;;;5.30;1.00;;;;;;5043286;28;20461;-79
2024/01/18 10:21:44;;;;;;;10.30;10.10;;;5.30;57.30;;;;;;5051389;28;21001;-78
2024/01/18 10:24:14;;;;;;;10.33;10.13;;;5.30;1.00;;;;;;5051692;28;20566;-77
2024/01/18 10:26:45;;;;;;;10.60;10.40;;;5.20;1.00;;;;;;5005463;28;1180535;-77
2024/01/18 10:29:13;;;;;;;10.10;9.90;;;5.10;1.00;;;;;;5054859;28;20448;-78
2024/01/18 10:31:42;;;;;;;10.00;9.80;;;5.10;1.00;;;;;;5053627;28;20238;-76
2024/01/18 10:34:11;;;;;;;9.50;9.30;;;5.00;1.00;;;;;;5054882;28;20453;-77
2024/01/18 10:36:39;;;;;;;10.27;9.97;;;5.00;99.90;;;;;;5052104;28;20468;-79
2024/01/18 10:39:18;;;;;;;9.90;9.70;;;5.00;1.00;;;;;;5052314;28;20448;-77
2024/01/18 10:41:48;;;;;;;9.30;9.20;;;5.00;64.40;;;;;;5051025;28;20232;-78
2024/01/18 10:44:17;;;;;;;9.60;9.10;;;5.00;1.00;;;;;;5051318;28;20557;-78
2024/01/18 10:46:47;;;;;;;8.80;8.60;;;5.00;1.00;;;;;;5042736;28;20587;-77
2024/01/18 10:49:16;;;;;;;8.70;8.60;;;5.00;1.00;;;;;;5042734;28;20524;-79
2024/01/18 10:51:44;;;;;;;9.70;9.50;;;4.90;1.00;;;;;;5039491;28;20556;-77
2024/01/18 10:54:14;;;;;;;9.10;8.90;;;5.00;1.00;;;;;;5048649;28;20457;-77
2024/01/18 10:56:59;;;;;;;8.10;8.00;;;4.90;1.00;;;;;;5049476;28;20478;-78
2024/01/18 10:59:29;;;;;;;8.83;8.63;;;4.90;1.00;;;;;;5049403;28;20212;-78
2024/01/18 11:01:59;;;;;;;8.50;8.30;;;4.90;1.00;;;;;;5050868;28;20443;-78
2024/01/18 11:04:28;;;;;;;7.80;7.70;;;4.80;1.00;;;;;;5052441;28;20217;-78
2024/01/18 11:06:57;;;;;;;8.10;7.90;;;4.80;1.00;;;;;;5048043;28;20245;-77
2024/01/18 11:09:28;;;;;;;8.00;7.80;;;4.90;1.00;;;;;;5053295;28;20197;-78
2024/01/18 11:11:58;;;;;;;7.83;7.53;;;4.80;1.00;;;;;;5049308;28;20451;-78
2024/01/18 11:14:28;;;;;;;7.85;7.75;;;4.90;93.50;;;;;;5039842;28;20454;-77
2024/01/18 11:17:00;;;;;;;8.27;8.07;;;4.90;1.00;;;;;;5049501;28;21171;-79
2024/01/18 11:19:40;;;;;;;7.90;7.60;;;4.80;1.00;;;;;;5047917;28;20299;-79
2024/01/18 11:22:11;;;;;;;8.52;8.05;;;4.80;1.00;;;;;;5042205;28;20447;-78
2024/01/18 11:24:39;;;;;;;7.37;7.27;;;4.80;1.00;;;;;;5041348;28;20222;-77
2024/01/18 11:27:20;;;;;;;7.20;7.10;;;4.80;81.80;;;;;;5049076;28;20491;-78
2024/01/18 11:29:49;;;;;;;7.20;7.10;;;4.80;1.00;;;;;;5053698;28;20490;-79
2024/01/18 11:32:19;;;;;;;7.37;7.17;;;4.80;1.00;;;;;;5035954;28;22716;-79
2024/01/18 11:34:49;;;;;;;7.28;7.07;;;4.70;1.00;;;;;;5043482;28;20970;-81
2024/01/18 11:37:20;;;;;;;7.00;6.90;;;4.70;2.70;;;;;;5047685;28;20256;-78
2024/01/18 11:39:55;;;;;;;6.70;6.60;;;4.70;1.00;;;;;;5048503;28;20254;-77
2024/01/18 11:42:27;;;;;;;7.13;6.93;;;4.70;1.00;;;;;;5043885;28;20448;-79
2024/01/18 11:44:57;;;;;;;7.32;7.22;;;4.70;1.00;;;;;;5045697;28;20213;-78
2024/01/18 11:47:28;;;;;;;7.20;7.10;;;4.70;1.00;;;;;;5035161;28;20229;-79
2024/01/18 11:49:57;;;;;;;7.27;7.07;;;4.70;1.00;;;;;;5051327;28;20483;-78
2024/01/18 11:52:28;;;;;;;6.78;6.68;;;4.60;1.00;;;;;;5048158;28;20463;-77
2024/01/18 11:54:59;;;;;;;6.32;6.22;;;4.70;1.00;;;;;;5040505;28;20197;-79
2024/01/18 11:57:29;;;;;;;6.82;6.70;;;4.70;1.00;;;;;;5039433;28;20221;-80
2024/01/18 11:59:58;;;;;;;6.97;6.78;;;4.60;1.00;;;;;;5044874;28;20347;-79
2024/01/18 12:02:28;;;;;;;7.00;6.80;;;4.60;1.00;;;;;;5042025;28;20216;-77
2024/01/18 12:04:57;;;;;;;6.67;6.47;;;4.60;1.00;;;;;;5051636;28;20773;-79
2024/01/18 12:07:27;;;;;;;6.70;6.50;;;4.50;1.00;;;;;;5047425;28;20483;-78
2024/01/18 12:09:57;;;;;;;6.35;6.20;;;4.50;1.00;;;;;;5047997;28;20629;-79
2024/01/18 12:12:25;;;;;;;7.00;6.80;;;4.50;1.00;;;;;;5045623;28;20748;-80
2024/01/18 12:14:56;;;;;;;7.10;6.90;;;4.50;1.00;;;;;;5053322;28;21106;-77
2024/01/18 12:17:24;;;;;;;6.70;6.60;;;4.40;1.00;;;;;;5045876;28;20225;-78
2024/01/18 12:19:53;;;;;;;7.27;6.97;;;4.50;1.00;;;;;;5044135;28;20467;-78
2024/01/18 12:22:25;;;;;;;6.90;6.70;;;4.40;1.00;;;;;;5044513;28;20818;-78
2024/01/18 12:24:54;;;;;;;6.78;6.57;;;4.40;1.00;;;;;;5050454;28;20194;-79
2024/01/18 12:27:23;;;;;;;6.63;6.43;;;4.40;1.00;;;;;;5050842;28;20225;-80
2024/01/18 12:29:52;;;;;;;6.50;6.30;;;4.40;99.90;;;;;;5043890;28;20300;-79
2024/01/18 12:32:22;;;;;;;6.43;6.23;;;4.40;99.90;;;;;;5046163;28;20263;-79
2024/01/18 12:34:50;;;;;;;7.47;7.18;;;4.40;99.90;;;;;;5056432;28;20471;-79
2024/01/18 12:37:19;;;;;;;7.55;7.25;;;4.30;99.90;;;;;;5043112;28;20217;-79
2024/01/18 12:39:47;;;;;;;6.95;6.75;;;4.20;99.90;;;;;;5051425;28;20251;-78
2024/01/18 12:42:15;;;;;;;6.30;6.00;;;4.20;99.90;;;;;;5051099;28;20193;-77
2024/01/18 12:44:44;;;;;;;7.50;7.30;;;4.20;99.90;;;;;;5054396;28;20554;-78
2024/01/18 12:47:12;;;;;;;6.80;6.60;;;4.20;99.90;;;;;;5055348;28;20756;-77
2024/01/18 12:49:42;;;;;;;7.10;6.88;;;4.20;99.90;;;;;;5056836;28;20205;-80
2024/01/18 12:52:11;;;;;;;7.05;6.80;;;4.10;99.90;;;;;;5045529;28;20197;-78